sensor_id;sensor_type;location;lat;lon;timestamp;pressure;altitude;pressure_sealevel;temperature;humidity
63654;BME280;49809;47.418;19.080;2022-09-09T00:02:38;100175.19;;;17.21;100.00
63654;BME280;49809;47.418;19.080;2022-09-09T00:08:59;100169.94;;;17.16;100.00
63654;BME280;49809;47.418;19.080;2022-09-09T00:15:13;100169.66;;;17.04;100.00
63654;BME280;49809;47.418;19.080;2022-09-09T00:21:30;100178.34;;;16.95;100.00
63654;BME280;49809;47.418;19.080;2022-09-09T00:24:38;100177.16;;;16.88;100.00
63654;BME280;49809;47.418;19.080;2022-09-09T00:27:47;100172.41;;;16.85;100.00
63654;BME280;49809;47.418;19.080;2022-09-09T00:30:51;100180.94;;;16.87;100.00
63654;BME280;49809;47.418;19.080;2022-09-09T00:33:58;100169.25;;;16.83;100.00
63654;BME280;49809;47.418;19.080;2022-09-09T00:37:03;100173.28;;;16.80;100.00
63654;BME280;49809;47.418;19.080;2022-09-09T00:43:33;100177.84;;;16.80;100.00
63654;BME280;49809;47.418;19.080;2022-09-09T00:49:50;100190.00;;;16.72;100.00
63654;BME280;49809;47.418;19.080;2022-09-09T00:53:16;100192.16;;;16.70;100.00
63654;BME280;49809;47.418;19.080;2022-09-09T00:59:48;100189.09;;;16.63;100.00
63654;BME280;49809;47.418;19.080;2022-09-09T01:09:30;100204.34;;;16.63;100.00
63654;BME280;49809;47.418;19.080;2022-09-09T01:12:41;100201.94;;;16.61;100.00
63654;BME280;49809;47.418;19.080;2022-09-09T01:15:47;100203.53;;;16.62;100.00
63654;BME280;49809;47.418;19.080;2022-09-09T01:18:51;100217.97;;;16.61;100.00
63654;BME280;49809;47.418;19.080;2022-09-09T01:28:26;100217.41;;;16.64;100.00
63654;BME280;49809;47.418;19.080;2022-09-09T01:31:51;100221.78;;;16.60;100.00
63654;BME280;49809;47.418;19.080;2022-09-09T01:34:54;100221.97;;;16.64;100.00
63654;BME280;49809;47.418;19.080;2022-09-09T01:37:58;100223.34;;;16.61;100.00
63654;BME280;49809;47.418;19.080;2022-09-09T01:41:01;100219.63;;;16.57;100.00
63654;BME280;49809;47.418;19.080;2022-09-09T01:44:06;100216.97;;;16.57;100.00
63654;BME280;49809;47.418;19.080;2022-09-09T01:47:11;100209.53;;;16.54;100.00
63654;BME280;49809;47.418;19.080;2022-09-09T01:50:16;100208.47;;;16.55;100.00
63654;BME280;49809;47.418;19.080;2022-09-09T01:53:19;100210.03;;;16.56;100.00
63654;BME280;49809;47.418;19.080;2022-09-09T02:03:57;100214.53;;;16.42;100.00
63654;BME280;49809;47.418;19.080;2022-09-09T02:07:02;100212.44;;;16.39;100.00
63654;BME280;49809;47.418;19.080;2022-09-09T02:10:20;100217.28;;;16.37;100.00
63654;BME280;49809;47.418;19.080;2022-09-09T02:13:24;100213.53;;;16.38;100.00
63654;BME280;49809;47.418;19.080;2022-09-09T02:16:35;100221.25;;;16.39;100.00
63654;BME280;49809;47.418;19.080;2022-09-09T02:19:47;100230.94;;;16.35;100.00
63654;BME280;49809;47.418;19.080;2022-09-09T02:22:53;100224.81;;;16.35;100.00
63654;BME280;49809;47.418;19.080;2022-09-09T02:25:57;100231.50;;;16.32;100.00
63654;BME280;49809;47.418;19.080;2022-09-09T02:29:01;100237.25;;;16.26;100.00
63654;BME280;49809;47.418;19.080;2022-09-09T02:32:06;100229.16;;;16.31;100.00
63654;BME280;49809;47.418;19.080;2022-09-09T02:35:13;100226.56;;;16.26;100.00
63654;BME280;49809;47.418;19.080;2022-09-09T02:38:17;100224.16;;;16.24;100.00
63654;BME280;49809;47.418;19.080;2022-09-09T02:41:24;100228.44;;;16.25;100.00
63654;BME280;49809;47.418;19.080;2022-09-09T02:44:29;100217.94;;;16.29;100.00
63654;BME280;49809;47.418;19.080;2022-09-09T02:50:39;100225.59;;;16.35;100.00
63654;BME280;49809;47.418;19.080;2022-09-09T03:00:15;100243.06;;;16.28;100.00
63654;BME280;49809;47.418;19.080;2022-09-09T03:03:21;100241.78;;;16.25;100.00
63654;BME280;49809;47.418;19.080;2022-09-09T03:06:26;100239.19;;;16.20;100.00
63654;BME280;49809;47.418;19.080;2022-09-09T03:09:31;100243.44;;;16.21;100.00
63654;BME280;49809;47.418;19.080;2022-09-09T03:12:35;100242.72;;;16.16;100.00
63654;BME280;49809;47.418;19.080;2022-09-09T03:15:38;100241.94;;;16.15;100.00
63654;BME280;49809;47.418;19.080;2022-09-09T03:18:44;100242.28;;;16.08;100.00
63654;BME280;49809;47.418;19.080;2022-09-09T03:21:48;100243.28;;;16.13;100.00
63654;BME280;49809;47.418;19.080;2022-09-09T03:24:54;100241.94;;;16.15;100.00
63654;BME280;49809;47.418;19.080;2022-09-09T03:27:57;100233.63;;;16.17;100.00
63654;BME280;49809;47.418;19.080;2022-09-09T03:31:00;100238.38;;;16.20;100.00
63654;BME280;49809;47.418;19.080;2022-09-09T03:34:06;100225.31;;;16.18;100.00
63654;BME280;49809;47.418;19.080;2022-09-09T03:37:10;100220.78;;;16.19;100.00
63654;BME280;49809;47.418;19.080;2022-09-09T03:40:14;100224.53;;;16.18;100.00
63654;BME280;49809;47.418;19.080;2022-09-09T03:43:19;100231.97;;;16.21;100.00
63654;BME280;49809;47.418;19.080;2022-09-09T03:46:23;100222.97;;;16.17;100.00
63654;BME280;49809;47.418;19.080;2022-09-09T03:49:26;100228.84;;;16.14;100.00
63654;BME280;49809;47.418;19.080;2022-09-09T03:52:31;100226.78;;;16.11;100.00
63654;BME280;49809;47.418;19.080;2022-09-09T03:55:34;100230.59;;;16.04;100.00
63654;BME280;49809;47.418;19.080;2022-09-09T03:58:37;100236.53;;;16.01;100.00
63654;BME280;49809;47.418;19.080;2022-09-09T04:01:45;100237.06;;;15.98;100.00
63654;BME280;49809;47.418;19.080;2022-09-09T04:04:48;100235.50;;;15.97;100.00
63654;BME280;49809;47.418;19.080;2022-09-09T04:07:53;100238.19;;;15.97;100.00
63654;BME280;49809;47.418;19.080;2022-09-09T04:10:59;100241.56;;;16.03;100.00
63654;BME280;49809;47.418;19.080;2022-09-09T04:14:04;100241.13;;;15.96;100.00
63654;BME280;49809;47.418;19.080;2022-09-09T04:17:09;100250.06;;;15.86;100.00
63654;BME280;49809;47.418;19.080;2022-09-09T04:20:15;100245.06;;;15.80;100.00
63654;BME280;49809;47.418;19.080;2022-09-09T04:23:20;100247.53;;;15.76;100.00
63654;BME280;49809;47.418;19.080;2022-09-09T04:26:23;100252.34;;;15.74;100.00
63654;BME280;49809;47.418;19.080;2022-09-09T04:29:28;100252.94;;;15.71;100.00
63654;BME280;49809;47.418;19.080;2022-09-09T04:32:32;100253.13;;;15.75;100.00
63654;BME280;49809;47.418;19.080;2022-09-09T04:35:35;100244.28;;;15.79;100.00
63654;BME280;49809;47.418;19.080;2022-09-09T04:38:37;100239.53;;;15.76;100.00
63654;BME280;49809;47.418;19.080;2022-09-09T04:41:40;100247.53;;;15.76;100.00
63654;BME280;49809;47.418;19.080;2022-09-09T04:44:43;100237.28;;;15.83;100.00
63654;BME280;49809;47.418;19.080;2022-09-09T04:47:46;100232.47;;;15.85;100.00
63654;BME280;49809;47.418;19.080;2022-09-09T04:50:58;100236.94;;;15.90;100.00
63654;BME280;49809;47.418;19.080;2022-09-09T04:54:02;100239.88;;;15.88;100.00
63654;BME280;49809;47.418;19.080;2022-09-09T04:57:09;100230.06;;;15.84;100.00
63654;BME280;49809;47.418;19.080;2022-09-09T05:00:20;100234.78;;;15.92;100.00
63654;BME280;49809;47.418;19.080;2022-09-09T05:03:26;100234.13;;;16.00;100.00
63654;BME280;49809;47.418;19.080;2022-09-09T05:06:31;100243.06;;;16.09;100.00
63654;BME280;49809;47.418;19.080;2022-09-09T05:09:33;100244.31;;;16.17;100.00
63654;BME280;49809;47.418;19.080;2022-09-09T05:12:38;100243.13;;;16.23;100.00
63654;BME280;49809;47.418;19.080;2022-09-09T05:15:50;100254.28;;;16.30;100.00
63654;BME280;49809;47.418;19.080;2022-09-09T05:18:53;100260.34;;;16.35;100.00
63654;BME280;49809;47.418;19.080;2022-09-09T05:21:58;100257.00;;;16.43;100.00
63654;BME280;49809;47.418;19.080;2022-09-09T05:25:01;100263.47;;;16.56;100.00
63654;BME280;49809;47.418;19.080;2022-09-09T05:28:03;100260.66;;;16.66;100.00
63654;BME280;49809;47.418;19.080;2022-09-09T05:31:07;100268.72;;;16.80;100.00
63654;BME280;49809;47.418;19.080;2022-09-09T05:34:13;100270.78;;;17.02;100.00
63654;BME280;49809;47.418;19.080;2022-09-09T05:37:17;100273.38;;;17.20;100.00
63654;BME280;49809;47.418;19.080;2022-09-09T05:40:21;100278.34;;;17.41;100.00
63654;BME280;49809;47.418;19.080;2022-09-09T05:43:26;100280.41;;;17.57;100.00
63654;BME280;49809;47.418;19.080;2022-09-09T05:46:32;100283.94;;;17.71;100.00
63654;BME280;49809;47.418;19.080;2022-09-09T05:49:35;100286.59;;;17.99;100.00
63654;BME280;49809;47.418;19.080;2022-09-09T05:52:37;100286.06;;;18.10;97.34
63654;BME280;49809;47.418;19.080;2022-09-09T05:55:40;100277.78;;;18.34;97.93
63654;BME280;49809;47.418;19.080;2022-09-09T05:58:42;100278.00;;;18.46;91.72
63654;BME280;49809;47.418;19.080;2022-09-09T06:01:46;100276.28;;;18.64;90.46
63654;BME280;49809;47.418;19.080;2022-09-09T06:04:50;100270.84;;;18.55;88.96
63654;BME280;49809;47.418;19.080;2022-09-09T06:07:53;100277.31;;;18.77;88.75
63654;BME280;49809;47.418;19.080;2022-09-09T06:11:03;100271.72;;;18.87;87.46
63654;BME280;49809;47.418;19.080;2022-09-09T06:14:08;100275.31;;;19.13;85.85
63654;BME280;49809;47.418;19.080;2022-09-09T06:17:13;100278.09;;;18.99;87.86
63654;BME280;49809;47.418;19.080;2022-09-09T06:20:16;100276.91;;;19.14;88.01
63654;BME280;49809;47.418;19.080;2022-09-09T06:23:20;100272.41;;;19.01;89.47
63654;BME280;49809;47.418;19.080;2022-09-09T06:26:26;100274.25;;;19.23;86.71
63654;BME280;49809;47.418;19.080;2022-09-09T06:42:03;100279.56;;;19.93;80.50
63654;BME280;49809;47.418;19.080;2022-09-09T06:45:17;100269.84;;;20.40;80.06
63654;BME280;49809;47.418;19.080;2022-09-09T06:48:23;100267.63;;;20.51;77.71
63654;BME280;49809;47.418;19.080;2022-09-09T06:51:30;100264.59;;;20.61;75.01
63654;BME280;49809;47.418;19.080;2022-09-09T06:55:20;100273.41;;;20.87;77.27
63654;BME280;49809;47.418;19.080;2022-09-09T06:58:19;100278.31;;;20.94;76.04
63654;BME280;49809;47.418;19.080;2022-09-09T07:07:11;100285.13;;;20.91;78.74
63654;BME280;49809;47.418;19.080;2022-09-09T07:11:38;100285.72;;;21.05;77.60
63654;BME280;49809;47.418;19.080;2022-09-09T07:15:07;100298.84;;;21.07;79.51
63654;BME280;49809;47.418;19.080;2022-09-09T07:18:16;100299.38;;;20.83;80.26
63654;BME280;49809;47.418;19.080;2022-09-09T07:21:33;100310.16;;;20.49;80.76
63654;BME280;49809;47.418;19.080;2022-09-09T07:24:42;100312.69;;;20.36;82.61
63654;BME280;49809;47.418;19.080;2022-09-09T07:28:24;100304.16;;;20.52;82.45
63654;BME280;49809;47.418;19.080;2022-09-09T07:31:31;100298.88;;;21.15;80.87
63654;BME280;49809;47.418;19.080;2022-09-09T07:34:44;100305.50;;;21.56;78.57
63654;BME280;49809;47.418;19.080;2022-09-09T08:03:32;100300.38;;;23.41;60.91
63654;BME280;49809;47.418;19.080;2022-09-09T08:11:36;100308.59;;;24.17;59.64
63654;BME280;49809;47.418;19.080;2022-09-09T08:15:19;100300.69;;;24.12;58.66
63654;BME280;49809;47.418;19.080;2022-09-09T08:56:00;100311.63;;;28.56;42.84
63654;BME280;49809;47.418;19.080;2022-09-09T08:59:11;100309.84;;;28.71;41.52
63654;BME280;49809;47.418;19.080;2022-09-09T09:11:24;100310.53;;;28.98;41.72
63654;BME280;49809;47.418;19.080;2022-09-09T09:15:41;100299.81;;;30.25;38.24
63654;BME280;49809;47.418;19.080;2022-09-09T09:19:18;100301.34;;;30.22;37.54
63654;BME280;49809;47.418;19.080;2022-09-09T09:23:16;100296.66;;;30.19;38.67
63654;BME280;49809;47.418;19.080;2022-09-09T09:26:44;100296.47;;;30.84;39.61
63654;BME280;49809;47.418;19.080;2022-09-09T09:34:10;100284.75;;;30.62;35.29
63654;BME280;49809;47.418;19.080;2022-09-09T09:37:17;100288.28;;;30.81;35.08
63654;BME280;49809;47.418;19.080;2022-09-09T09:41:01;100287.94;;;31.28;34.78
63654;BME280;49809;47.418;19.080;2022-09-09T09:44:59;100285.25;;;31.18;35.01
63654;BME280;49809;47.418;19.080;2022-09-09T09:48:32;100289.06;;;31.95;34.29
63654;BME280;49809;47.418;19.080;2022-09-09T09:51:41;100290.59;;;32.03;34.13
63654;BME280;49809;47.418;19.080;2022-09-09T09:55:12;100280.00;;;32.15;34.58
63654;BME280;49809;47.418;19.080;2022-09-09T10:02:18;100292.25;;;31.19;34.67
63654;BME280;49809;47.418;19.080;2022-09-09T10:05:44;100282.88;;;31.62;33.24
63654;BME280;49809;47.418;19.080;2022-09-09T10:09:31;100270.59;;;32.27;33.01
63654;BME280;49809;47.418;19.080;2022-09-09T10:13:02;100279.56;;;32.31;32.54
63654;BME280;49809;47.418;19.080;2022-09-09T10:16:40;100272.62;;;31.98;32.46
63654;BME280;49809;47.418;19.080;2022-09-09T10:30:36;100263.91;;;32.31;32.34
63654;BME280;49809;47.418;19.080;2022-09-09T10:38:47;100268.75;;;32.62;29.60
63654;BME280;49809;47.418;19.080;2022-09-09T10:42:19;100268.44;;;32.63;29.60
63654;BME280;49809;47.418;19.080;2022-09-09T10:53:40;100253.03;;;32.17;30.83
63654;BME280;49809;47.418;19.080;2022-09-09T11:04:25;100251.34;;;32.34;29.04
63654;BME280;49809;47.418;19.080;2022-09-09T11:07:40;100251.16;;;32.73;29.95
63654;BME280;49809;47.418;19.080;2022-09-09T11:11:05;100252.97;;;33.42;28.28
63654;BME280;49809;47.418;19.080;2022-09-09T11:14:33;100245.47;;;33.46;28.22
63654;BME280;49809;47.418;19.080;2022-09-09T11:17:45;100239.53;;;33.54;26.28
63654;BME280;49809;47.418;19.080;2022-09-09T11:20:58;100241.97;;;34.17;24.37
63654;BME280;49809;47.418;19.080;2022-09-09T11:24:10;100244.75;;;33.42;26.29
63654;BME280;49809;47.418;19.080;2022-09-09T11:27:56;100242.75;;;33.01;26.19
63654;BME280;49809;47.418;19.080;2022-09-09T11:42:24;100252.75;;;33.63;23.83
63654;BME280;49809;47.418;19.080;2022-09-09T11:46:01;100240.25;;;34.30;22.95
63654;BME280;49809;47.418;19.080;2022-09-09T11:49:48;100236.56;;;33.38;23.27
63654;BME280;49809;47.418;19.080;2022-09-09T11:56:43;100227.37;;;33.89;23.98
63654;BME280;49809;47.418;19.080;2022-09-09T12:00:38;100225.03;;;31.64;27.13
63654;BME280;49809;47.418;19.080;2022-09-09T12:07:58;100220.78;;;31.06;28.12
63654;BME280;49809;47.418;19.080;2022-09-09T12:11:02;100217.19;;;30.52;28.12
63654;BME280;49809;47.418;19.080;2022-09-09T12:14:20;100228.13;;;30.49;28.89
63654;BME280;49809;47.418;19.080;2022-09-09T12:17:27;100232.00;;;30.44;27.64
63654;BME280;49809;47.418;19.080;2022-09-09T12:20:34;100234.31;;;29.63;30.91
63654;BME280;49809;47.418;19.080;2022-09-09T12:23:58;100231.88;;;30.09;30.19
63654;BME280;49809;47.418;19.080;2022-09-09T12:27:23;100223.34;;;30.28;29.49
63654;BME280;49809;47.418;19.080;2022-09-09T12:31:25;100229.28;;;30.51;29.67
63654;BME280;49809;47.418;19.080;2022-09-09T12:34:59;100212.16;;;30.90;32.13
63654;BME280;49809;47.418;19.080;2022-09-09T12:38:45;100200.84;;;30.81;31.50
63654;BME280;49809;47.418;19.080;2022-09-09T12:42:16;100199.94;;;30.27;33.51
63654;BME280;49809;47.418;19.080;2022-09-09T12:45:42;100188.72;;;29.56;33.41
63654;BME280;49809;47.418;19.080;2022-09-09T12:48:48;100196.91;;;29.63;35.92
63654;BME280;49809;47.418;19.080;2022-09-09T12:51:52;100188.66;;;28.94;35.68
63654;BME280;49809;47.418;19.080;2022-09-09T12:55:25;100181.69;;;29.01;36.06
63654;BME280;49809;47.418;19.080;2022-09-09T12:59:23;100181.03;;;28.70;36.55
63654;BME280;49809;47.418;19.080;2022-09-09T13:02:26;100186.41;;;28.63;38.52
63654;BME280;49809;47.418;19.080;2022-09-09T13:05:48;100179.19;;;28.41;38.36
63654;BME280;49809;47.418;19.080;2022-09-09T13:08:52;100165.25;;;28.46;37.47
63654;BME280;49809;47.418;19.080;2022-09-09T13:11:56;100169.81;;;28.05;38.43
63654;BME280;49809;47.418;19.080;2022-09-09T13:15:33;100157.50;;;28.11;37.83
63654;BME280;49809;47.418;19.080;2022-09-09T13:18:55;100157.31;;;27.67;38.95
63654;BME280;49809;47.418;19.080;2022-09-09T13:21:58;100157.75;;;28.02;38.55
63654;BME280;49809;47.418;19.080;2022-09-09T13:25:20;100149.34;;;28.15;38.69
63654;BME280;49809;47.418;19.080;2022-09-09T13:28:28;100153.94;;;28.07;39.54
63654;BME280;49809;47.418;19.080;2022-09-09T13:32:12;100148.28;;;28.23;37.62
63654;BME280;49809;47.418;19.080;2022-09-09T13:35:50;100156.84;;;28.25;38.33
63654;BME280;49809;47.418;19.080;2022-09-09T13:39:01;100151.59;;;28.09;38.08
63654;BME280;49809;47.418;19.080;2022-09-09T13:42:05;100142.94;;;28.00;39.13
63654;BME280;49809;47.418;19.080;2022-09-09T13:45:21;100141.59;;;27.83;40.24
63654;BME280;49809;47.418;19.080;2022-09-09T13:48:30;100141.66;;;27.57;39.22
63654;BME280;49809;47.418;19.080;2022-09-09T13:51:45;100140.72;;;27.76;39.48
63654;BME280;49809;47.418;19.080;2022-09-09T13:54:50;100141.94;;;28.12;39.13
63654;BME280;49809;47.418;19.080;2022-09-09T13:57:58;100133.34;;;28.09;38.32
63654;BME280;49809;47.418;19.080;2022-09-09T14:01:03;100129.19;;;28.19;36.67
63654;BME280;49809;47.418;19.080;2022-09-09T14:04:09;100126.84;;;28.18;37.21
63654;BME280;49809;47.418;19.080;2022-09-09T14:07:17;100124.63;;;28.27;36.80
63654;BME280;49809;47.418;19.080;2022-09-09T14:10:23;100113.31;;;28.25;37.43
63654;BME280;49809;47.418;19.080;2022-09-09T14:13:26;100114.56;;;27.64;36.58
63654;BME280;49809;47.418;19.080;2022-09-09T14:16:54;100113.38;;;27.35;37.79
63654;BME280;49809;47.418;19.080;2022-09-09T14:20:25;100100.69;;;27.16;37.59
63654;BME280;49809;47.418;19.080;2022-09-09T14:24:14;100113.56;;;27.19;37.90
63654;BME280;49809;47.418;19.080;2022-09-09T14:27:50;100118.31;;;27.56;37.57
63654;BME280;49809;47.418;19.080;2022-09-09T14:31:27;100112.97;;;27.33;37.17
63654;BME280;49809;47.418;19.080;2022-09-09T14:35:00;100110.41;;;27.17;39.67
63654;BME280;49809;47.418;19.080;2022-09-09T14:38:33;100100.94;;;27.34;38.75
63654;BME280;49809;47.418;19.080;2022-09-09T14:42:21;100094.41;;;27.39;38.41
63654;BME280;49809;47.418;19.080;2022-09-09T14:46:14;100097.25;;;26.93;40.58
63654;BME280;49809;47.418;19.080;2022-09-09T14:50:11;100100.66;;;26.87;40.39
63654;BME280;49809;47.418;19.080;2022-09-09T14:53:52;100100.97;;;26.85;38.86
63654;BME280;49809;47.418;19.080;2022-09-09T14:57:07;100110.16;;;27.00;40.20
63654;BME280;49809;47.418;19.080;2022-09-09T15:00:19;100098.94;;;27.01;40.20
63654;BME280;49809;47.418;19.080;2022-09-09T15:03:24;100100.12;;;27.04;40.06
63654;BME280;49809;47.418;19.080;2022-09-09T15:07:17;100099.50;;;27.14;37.86
63654;BME280;49809;47.418;19.080;2022-09-09T15:10:43;100098.88;;;26.98;39.00
63654;BME280;49809;47.418;19.080;2022-09-09T15:13:50;100098.06;;;26.97;39.93
63654;BME280;49809;47.418;19.080;2022-09-09T15:17:07;100098.25;;;27.08;40.19
63654;BME280;49809;47.418;19.080;2022-09-09T15:20:16;100096.94;;;27.24;37.77
63654;BME280;49809;47.418;19.080;2022-09-09T15:23:42;100093.97;;;27.37;37.63
63654;BME280;49809;47.418;19.080;2022-09-09T15:26:50;100104.28;;;27.50;36.63
63654;BME280;49809;47.418;19.080;2022-09-09T15:30:35;100097.19;;;27.46;35.76
63654;BME280;49809;47.418;19.080;2022-09-09T15:34:13;100102.22;;;27.44;33.29
63654;BME280;49809;47.418;19.080;2022-09-09T15:41:32;100098.72;;;26.64;37.11
63654;BME280;49809;47.418;19.080;2022-09-09T15:44:48;100093.91;;;26.31;36.74
63654;BME280;49809;47.418;19.080;2022-09-09T15:48:13;100095.34;;;26.06;38.99
63654;BME280;49809;47.418;19.080;2022-09-09T15:51:17;100103.59;;;25.71;42.47
63654;BME280;49809;47.418;19.080;2022-09-09T15:54:42;100100.03;;;25.51;44.07
63654;BME280;49809;47.418;19.080;2022-09-09T15:57:46;100106.06;;;25.41;46.10
63654;BME280;49809;47.418;19.080;2022-09-09T16:01:11;100105.63;;;25.39;45.39
63654;BME280;49809;47.418;19.080;2022-09-09T16:04:18;100098.19;;;25.36;47.16
63654;BME280;49809;47.418;19.080;2022-09-09T16:07:29;100096.62;;;25.35;47.90
63654;BME280;49809;47.418;19.080;2022-09-09T16:10:33;100109.66;;;25.30;45.03
63654;BME280;49809;47.418;19.080;2022-09-09T16:13:59;100118.69;;;25.18;43.27
63654;BME280;49809;47.418;19.080;2022-09-09T16:17:35;100119.94;;;25.05;46.35
63654;BME280;49809;47.418;19.080;2022-09-09T16:20:41;100114.91;;;24.88;48.24
63654;BME280;49809;47.418;19.080;2022-09-09T16:23:45;100121.25;;;24.80;47.56
63654;BME280;49809;47.418;19.080;2022-09-09T16:27:09;100122.22;;;24.72;49.52
63654;BME280;49809;47.418;19.080;2022-09-09T16:30:14;100115.47;;;24.65;51.78
63654;BME280;49809;47.418;19.080;2022-09-09T16:34:05;100121.00;;;24.53;51.97
63654;BME280;49809;47.418;19.080;2022-09-09T16:37:09;100125.25;;;24.39;54.73
63654;BME280;49809;47.418;19.080;2022-09-09T16:40:12;100119.72;;;24.19;56.61
63654;BME280;49809;47.418;19.080;2022-09-09T16:43:17;100122.91;;;24.09;55.69
63654;BME280;49809;47.418;19.080;2022-09-09T16:46:27;100120.94;;;23.94;56.23
63654;BME280;49809;47.418;19.080;2022-09-09T16:49:31;100118.78;;;23.72;57.90
63654;BME280;49809;47.418;19.080;2022-09-09T16:52:36;100118.69;;;23.44;58.33
63654;BME280;49809;47.418;19.080;2022-09-09T16:55:40;100121.00;;;23.18;59.82
63654;BME280;49809;47.418;19.080;2022-09-09T16:58:58;100108.53;;;22.89;62.25
63654;BME280;49809;47.418;19.080;2022-09-09T17:02:02;100115.41;;;22.74;60.45
63654;BME280;49809;47.418;19.080;2022-09-09T17:05:08;100123.31;;;22.59;61.22
63654;BME280;49809;47.418;19.080;2022-09-09T17:08:12;100126.34;;;22.45;61.67
63654;BME280;49809;47.418;19.080;2022-09-09T17:11:18;100129.00;;;22.33;62.64
63654;BME280;49809;47.418;19.080;2022-09-09T17:14:23;100131.41;;;22.14;65.52
63654;BME280;49809;47.418;19.080;2022-09-09T17:17:28;100124.59;;;21.95;66.95
63654;BME280;49809;47.418;19.080;2022-09-09T17:20:40;100129.66;;;21.76;67.97
63654;BME280;49809;47.418;19.080;2022-09-09T17:23:51;100137.88;;;21.59;68.92
63654;BME280;49809;47.418;19.080;2022-09-09T17:26:56;100138.00;;;21.42;70.51
63654;BME280;49809;47.418;19.080;2022-09-09T17:30:00;100139.66;;;21.25;70.61
63654;BME280;49809;47.418;19.080;2022-09-09T17:33:06;100146.72;;;21.09;71.58
63654;BME280;49809;47.418;19.080;2022-09-09T17:39:18;100127.84;;;20.80;73.02
63654;BME280;49809;47.418;19.080;2022-09-09T17:42:25;100129.78;;;20.71;72.89
63654;BME280;49809;47.418;19.080;2022-09-09T17:45:31;100135.50;;;20.61;74.55
63654;BME280;49809;47.418;19.080;2022-09-09T17:48:38;100141.25;;;20.51;75.48
63654;BME280;49809;47.418;19.080;2022-09-09T17:51:44;100139.69;;;20.41;76.46
63654;BME280;49809;47.418;19.080;2022-09-09T17:54:48;100137.03;;;20.32;76.93
63654;BME280;49809;47.418;19.080;2022-09-09T17:57:52;100144.09;;;20.28;76.13
63654;BME280;49809;47.418;19.080;2022-09-09T18:01:02;100142.19;;;20.29;76.30
63654;BME280;49809;47.418;19.080;2022-09-09T18:04:08;100139.06;;;20.35;74.93
63654;BME280;49809;47.418;19.080;2022-09-09T18:07:12;100134.63;;;20.39;76.00
63654;BME280;49809;47.418;19.080;2022-09-09T18:10:15;100141.41;;;20.46;74.85
63654;BME280;49809;47.418;19.080;2022-09-09T18:13:20;100136.50;;;20.48;74.19
63654;BME280;49809;47.418;19.080;2022-09-09T18:16:28;100148.03;;;20.48;75.54
63654;BME280;49809;47.418;19.080;2022-09-09T18:19:34;100157.38;;;20.51;75.83
63654;BME280;49809;47.418;19.080;2022-09-09T18:22:38;100153.72;;;20.55;74.59
63654;BME280;49809;47.418;19.080;2022-09-09T18:25:42;100146.44;;;20.56;76.91
63654;BME280;49809;47.418;19.080;2022-09-09T18:29:11;100150.84;;;20.60;76.50
63654;BME280;49809;47.418;19.080;2022-09-09T18:32:19;100153.84;;;20.59;76.94
63654;BME280;49809;47.418;19.080;2022-09-09T18:35:23;100151.66;;;20.61;76.99
63654;BME280;49809;47.418;19.080;2022-09-09T18:38:47;100147.19;;;20.65;76.45
63654;BME280;49809;47.418;19.080;2022-09-09T18:41:53;100160.34;;;20.58;77.00
63654;BME280;49809;47.418;19.080;2022-09-09T18:44:56;100158.97;;;20.52;78.61
63654;BME280;49809;47.418;19.080;2022-09-09T18:48:00;100154.53;;;20.38;80.34
63654;BME280;49809;47.418;19.080;2022-09-09T18:51:10;100161.34;;;20.36;79.10
63654;BME280;49809;47.418;19.080;2022-09-09T18:54:31;100154.69;;;20.25;79.52
63654;BME280;49809;47.418;19.080;2022-09-09T18:57:42;100157.41;;;20.16;80.34
63654;BME280;49809;47.418;19.080;2022-09-09T19:01:11;100159.16;;;20.12;81.31
63654;BME280;49809;47.418;19.080;2022-09-09T19:04:15;100158.03;;;20.05;81.04
63654;BME280;49809;47.418;19.080;2022-09-09T19:07:18;100153.94;;;19.90;79.83
63654;BME280;49809;47.418;19.080;2022-09-09T19:10:24;100148.91;;;19.80;79.89
63654;BME280;49809;47.418;19.080;2022-09-09T19:13:31;100145.37;;;19.71;79.09
63654;BME280;49809;47.418;19.080;2022-09-09T19:16:35;100148.87;;;19.63;78.64
63654;BME280;49809;47.418;19.080;2022-09-09T19:19:47;100140.81;;;19.54;77.23
63654;BME280;49809;47.418;19.080;2022-09-09T19:23:22;100155.78;;;19.46;78.21
63654;BME280;49809;47.418;19.080;2022-09-09T19:26:47;100148.97;;;19.40;78.55
63654;BME280;49809;47.418;19.080;2022-09-09T19:29:51;100150.38;;;19.38;81.22
63654;BME280;49809;47.418;19.080;2022-09-09T19:32:58;100157.78;;;19.32;81.25
63654;BME280;49809;47.418;19.080;2022-09-09T19:36:03;100157.16;;;19.35;80.68
63654;BME280;49809;47.418;19.080;2022-09-09T19:39:08;100160.31;;;19.37;79.98
63654;BME280;49809;47.418;19.080;2022-09-09T19:42:11;100160.81;;;19.39;76.15
63654;BME280;49809;47.418;19.080;2022-09-09T19:45:15;100154.38;;;19.49;73.48
63654;BME280;49809;47.418;19.080;2022-09-09T19:48:18;100156.78;;;19.68;71.95
63654;BME280;49809;47.418;19.080;2022-09-09T19:51:24;100169.09;;;19.86;71.84
63654;BME280;49809;47.418;19.080;2022-09-09T19:54:28;100172.75;;;20.07;72.18
63654;BME280;49809;47.418;19.080;2022-09-09T19:57:31;100161.84;;;20.12;73.62
63654;BME280;49809;47.418;19.080;2022-09-09T20:00:34;100161.69;;;20.09;74.17
63654;BME280;49809;47.418;19.080;2022-09-09T20:03:43;100170.06;;;20.07;74.62
63654;BME280;49809;47.418;19.080;2022-09-09T20:06:46;100162.44;;;20.09;75.35